Time;durP1;ratioP1;P1;durP2;ratioP2;P2;SDS_P1;SDS_P2;PMS_P1;PMS_P2;Temp;Humidity;BMP_temperature;BMP_pressure;BME280_temperature;BME280_humidity;BME280_pressure;Samples;Min_cycle;Max_cycle;Signal;HPM_P1;HPM_P2
2024/01/26 00:00:39;;;;;;;18.58;13.77;;;;;;;;;;4908009;29;20089;-89
2024/01/26 00:03:05;;;;;;;23.92;21.88;;;;;;;;;;4889895;29;20047;-88
2024/01/26 00:05:43;;;;;;;21.60;18.65;;;;;;;;;;4888819;29;20347;-96
2024/01/26 00:08:09;;;;;;;20.17;18.38;;;;;;;;;;4901465;29;20501;-89
2024/01/26 00:10:36;;;;;;;24.75;22.65;;;;;;;;;;4876777;29;20029;-89
2024/01/26 00:13:13;;;;;;;24.90;22.73;;;;;;;;;;4873247;29;20124;-96
2024/01/26 00:15:40;;;;;;;20.45;18.60;;;;;;;;;;4884684;29;20036;-88
2024/01/26 00:21:18;;;;;;;16.35;14.50;;;;;;;;;;4893543;23;20049;-89
2024/01/26 00:23:46;;;;;;;25.83;23.90;;;;;;;;;;4865716;29;20037;-89
2024/01/26 00:26:13;;;;;;;22.02;19.95;;;;;;;;;;4872195;29;20025;-88
2024/01/26 00:32:14;;;;;;;16.30;14.25;;;;;;;;;;4850868;29;20135;-96
2024/01/26 00:37:59;;;;;;;14.35;12.93;;;;;;;;;;4795082;29;20038;-89
2024/01/26 00:40:25;;;;;;;19.05;17.17;;;;;;;;;;4812909;29;20061;-89
2024/01/26 00:42:51;;;;;;;20.63;18.67;;;;;;;;;;4868120;29;20037;-89
2024/01/26 00:45:18;;;;;;;21.13;19.20;;;;;;;;;;4868892;29;20073;-88
2024/01/26 00:47:45;;;;;;;20.35;18.52;;;;;;;;;;4884430;29;20029;-89
2024/01/26 00:50:40;;;;;;;20.60;18.95;;;;;;;;;;4887971;29;20047;-96
2024/01/26 00:53:06;;;;;;;17.25;15.68;;;;;;;;;;4892118;29;20032;-92
2024/01/26 00:58:36;;;;;;;14.60;13.07;;;;;;;;;;4898185;29;20113;-90
2024/01/26 01:01:03;;;;;;;18.92;17.27;;;;;;;;;;4867945;29;20037;-89
2024/01/26 01:03:32;;;;;;;14.73;13.25;;;;;;;;;;4868638;29;20052;-89
2024/01/26 01:05:58;;;;;;;16.25;14.90;;;;;;;;;;4867278;29;20025;-95
2024/01/26 01:08:27;;;;;;;20.40;18.77;;;;;;;;;;4872486;29;20084;-89
2024/01/26 01:11:03;;;;;;;20.00;18.30;;;;;;;;;;4871404;29;20062;-89
2024/01/26 01:13:29;;;;;;;21.52;19.73;;;;;;;;;;4875314;29;20071;-89
2024/01/26 01:15:55;;;;;;;24.77;22.77;;;;;;;;;;4888370;29;20461;-88
2024/01/26 01:18:22;;;;;;;17.58;15.98;;;;;;;;;;4886230;29;20032;-89
2024/01/26 01:20:48;;;;;;;22.70;19.33;;;;;;;;;;4884995;29;20140;-89
2024/01/26 01:23:30;;;;;;;22.92;21.13;;;;;;;;;;4876655;29;20044;-89
2024/01/26 01:25:56;;;;;;;16.73;15.18;;;;;;;;;;4864839;29;20033;-88
2024/01/26 01:28:22;;;;;;;18.23;15.43;;;;;;;;;;4881652;29;20032;-89
2024/01/26 01:31:13;;;;;;;16.92;15.38;;;;;;;;;;4885191;29;20040;-91
2024/01/26 01:33:39;;;;;;;17.95;16.25;;;;;;;;;;4865712;29;20025;-89
2024/01/26 01:36:17;;;;;;;14.68;13.48;;;;;;;;;;4865945;29;20033;-96
2024/01/26 01:39:07;;;;;;;16.75;15.38;;;;;;;;;;4878020;29;20033;-96
2024/01/26 01:41:33;;;;;;;21.52;19.45;;;;;;;;;;4880454;29;20075;-88
2024/01/26 01:43:59;;;;;;;19.75;18.30;;;;;;;;;;4884956;29;20033;-88
2024/01/26 01:46:26;;;;;;;20.70;18.50;;;;;;;;;;4885508;29;20157;-89
2024/01/26 01:48:52;;;;;;;19.80;18.20;;;;;;;;;;4874669;29;20036;-90
2024/01/26 01:51:18;;;;;;;17.33;16.00;;;;;;;;;;4867938;29;20033;-89
2024/01/26 01:53:47;;;;;;;20.38;18.42;;;;;;;;;;4880075;29;20455;-88
2024/01/26 01:56:15;;;;;;;21.02;19.23;;;;;;;;;;4886684;29;20040;-89
2024/01/26 01:58:44;;;;;;;20.48;18.52;;;;;;;;;;4868082;29;20033;-89
2024/01/26 02:01:39;;;;;;;21.08;18.92;;;;;;;;;;4867447;29;20033;-95
2024/01/26 02:04:05;;;;;;;20.38;18.42;;;;;;;;;;4864707;29;20033;-89
2024/01/26 02:06:31;;;;;;;20.17;18.30;;;;;;;;;;4864258;29;20039;-89
2024/01/26 02:09:06;;;;;;;20.65;19.13;;;;;;;;;;4876817;29;20474;-89
2024/01/26 02:11:32;;;;;;;19.63;18.00;;;;;;;;;;4885197;29;20084;-89
2024/01/26 02:13:59;;;;;;;15.80;12.93;;;;;;;;;;4875727;29;20037;-88
2024/01/26 02:19:32;;;;;;;21.58;19.65;;;;;;;;;;4902074;29;20038;-89
2024/01/26 02:21:59;;;;;;;16.73;15.18;;;;;;;;;;4882851;29;20434;-89
2024/01/26 02:24:25;;;;;;;17.05;14.80;;;;;;;;;;4885970;29;20057;-89
2024/01/26 02:26:54;;;;;;;18.92;17.00;;;;;;;;;;4900670;29;20032;-96
2024/01/26 02:29:30;;;;;;;16.05;14.02;;;;;;;;;;4888589;29;20031;-89
2024/01/26 02:31:56;;;;;;;15.20;12.73;;;;;;;;;;4893469;29;20029;-90
2024/01/26 02:34:23;;;;;;;18.33;13.00;;;;;;;;;;4864001;29;20447;-89
2024/01/26 02:36:49;;;;;;;15.15;13.48;;;;;;;;;;4893641;29;20024;-87
2024/01/26 02:39:15;;;;;;;19.40;16.55;;;;;;;;;;4873852;29;20177;-88
2024/01/26 02:41:41;;;;;;;14.80;11.52;;;;;;;;;;4868768;29;20040;-89
2024/01/26 02:44:07;;;;;;;17.98;14.30;;;;;;;;;;4866855;29;20391;-89
2024/01/26 02:46:33;;;;;;;18.15;11.80;;;;;;;;;;4867120;29;20021;-89
2024/01/26 02:49:01;;;;;;;16.40;10.95;;;;;;;;;;4886163;29;20031;-88
2024/01/26 02:51:27;;;;;;;16.67;8.48;;;;;;;;;;4884678;29;20033;-89
2024/01/26 02:54:15;;;;;;;17.02;13.65;;;;;;;;;;4886374;29;20033;-96
2024/01/26 02:56:41;;;;;;;15.07;13.52;;;;;;;;;;4885479;29;20033;-90
2024/01/26 03:01:53;;;;;;;18.05;16.05;;;;;;;;;;4910661;23;20057;-88
2024/01/26 03:04:19;;;;;;;13.65;10.73;;;;;;;;;;4888570;29;20040;-89
2024/01/26 03:06:54;;;;;;;16.23;9.88;;;;;;;;;;4884992;29;20035;-96
2024/01/26 03:11:52;;;;;;;12.63;11.45;;;;;;;;;;4902090;23;20427;-88
2024/01/26 03:14:18;;;;;;;17.58;15.05;;;;;;;;;;4868383;29;20403;-89
2024/01/26 03:16:45;;;;;;;17.60;8.73;;;;;;;;;;4886406;29;20029;-89
2024/01/26 03:19:11;;;;;;;15.20;10.73;;;;;;;;;;4899678;29;20116;-89
2024/01/26 03:21:50;;;;;;;17.20;15.02;;;;;;;;;;4882267;29;20096;-96
2024/01/26 03:24:16;;;;;;;12.80;9.25;;;;;;;;;;4883675;29;20033;-91
2024/01/26 03:26:42;;;;;;;16.02;12.00;;;;;;;;;;4867880;29;20025;-89
2024/01/26 03:29:08;;;;;;;16.42;14.13;;;;;;;;;;4867317;29;20037;-89
2024/01/26 03:31:34;;;;;;;16.45;14.85;;;;;;;;;;4867023;29;20032;-89
2024/01/26 03:34:00;;;;;;;15.93;8.75;;;;;;;;;;4866785;29;20032;-88
2024/01/26 03:39:38;;;;;;;18.75;17.20;;;;;;;;;;4875425;29;20049;-89
2024/01/26 03:42:10;;;;;;;13.10;10.48;;;;;;;;;;4874130;29;20040;-89
2024/01/26 03:44:43;;;;;;;16.17;13.07;;;;;;;;;;4907286;29;20082;-96
2024/01/26 03:47:09;;;;;;;14.07;7.82;;;;;;;;;;4869669;29;20573;-89
2024/01/26 03:49:36;;;;;;;11.68;8.38;;;;;;;;;;4900150;29;20035;-89
2024/01/26 03:52:04;;;;;;;11.00;5.97;;;;;;;;;;4882722;29;20066;-95
2024/01/26 03:57:22;;;;;;;10.98;4.75;;;;;;;;;;4922905;23;20051;-88
2024/01/26 04:02:58;;;;;;;15.95;5.32;;;;;;;;;;4853468;29;20053;-88
2024/01/26 04:05:27;;;;;;;6.18;3.20;;;;;;;;;;4853585;23;1428369;-89
2024/01/26 04:07:53;;;;;;;10.50;3.95;;;;;;;;;;4892280;29;20037;-89
2024/01/26 04:13:23;;;;;;;8.95;3.92;;;;;;;;;;4892754;29;20085;-90
2024/01/26 04:15:52;;;;;;;11.30;3.50;;;;;;;;;;4886586;29;20032;-96
2024/01/26 04:18:22;;;;;;;13.27;3.75;;;;;;;;;;4892519;29;20029;-96
2024/01/26 04:23:48;;;;;;;12.30;3.97;;;;;;;;;;4998891;23;20061;-96
2024/01/26 04:31:53;;;;;;;14.63;4.38;;;;;;;;;;4857274;29;20114;-90
2024/01/26 04:35:04;;;;;;;11.07;4.07;;;;;;;;;;4849139;29;20049;-90
2024/01/26 04:37:33;;;;;;;10.60;4.82;;;;;;;;;;4829453;29;20097;-89
2024/01/26 04:43:08;;;;;;;12.05;6.43;;;;;;;;;;4819185;29;20050;-96
2024/01/26 04:45:37;;;;;;;14.80;4.30;;;;;;;;;;4884865;23;20036;-89
2024/01/26 04:54:18;;;;;;;12.43;9.38;;;;;;;;;;4909727;29;20141;-96
2024/01/26 04:56:44;;;;;;;11.48;5.97;;;;;;;;;;4896344;29;20044;-88
2024/01/26 04:59:10;;;;;;;13.15;3.33;;;;;;;;;;4881871;29;20037;-89
2024/01/26 05:01:39;;;;;;;12.88;4.05;;;;;;;;;;4882248;29;20458;-89
2024/01/26 05:07:08;;;;;;;11.30;3.95;;;;;;;;;;4908499;23;20053;-88
2024/01/26 05:09:34;;;;;;;6.72;3.10;;;;;;;;;;4906488;23;20039;-89
2024/01/26 05:12:13;;;;;;;8.43;2.92;;;;;;;;;;4860764;29;20048;-93
2024/01/26 05:14:51;;;;;;;9.23;2.72;;;;;;;;;;4869824;29;20025;-96
2024/01/26 05:17:18;;;;;;;10.95;4.07;;;;;;;;;;4829492;29;20042;-94
2024/01/26 05:19:44;;;;;;;14.63;3.13;;;;;;;;;;4824249;29;20022;-88
2024/01/26 05:22:10;;;;;;;8.30;2.92;;;;;;;;;;4853232;29;20046;-92
2024/01/26 05:24:36;;;;;;;9.35;2.60;;;;;;;;;;4872518;24;20090;-89
2024/01/26 05:32:25;;;;;;;14.70;3.40;;;;;;;;;;4979324;23;20052;-89
2024/01/26 05:37:20;;;;;;;14.73;3.17;;;;;;;;;;4912047;23;20076;-87
2024/01/26 05:39:46;;;;;;;12.85;2.90;;;;;;;;;;4877614;29;20073;-91
2024/01/26 05:45:04;;;;;;;12.45;3.88;;;;;;;;;;4891996;29;20124;-96
2024/01/26 05:47:37;;;;;;;11.10;4.13;;;;;;;;;;4868754;29;20103;-95
2024/01/26 05:50:28;;;;;;;14.70;3.90;;;;;;;;;;4877027;29;20057;-96
2024/01/26 05:52:57;;;;;;;17.70;3.95;;;;;;;;;;4888738;29;20032;-89
2024/01/26 05:55:23;;;;;;;15.57;3.33;;;;;;;;;;4902321;29;20044;-93
2024/01/26 05:57:58;;;;;;;9.43;3.53;;;;;;;;;;4877846;29;20072;-88
2024/01/26 06:00:38;;;;;;;11.60;3.58;;;;;;;;;;4878942;29;20040;-92
2024/01/26 06:03:04;;;;;;;14.20;4.78;;;;;;;;;;4892951;29;20059;-90
2024/01/26 06:05:30;;;;;;;15.75;4.50;;;;;;;;;;4972339;23;20045;-90
2024/01/26 06:08:14;;;;;;;9.95;4.05;;;;;;;;;;4867815;29;20033;-93
2024/01/26 06:10:46;;;;;;;9.18;3.72;;;;;;;;;;4872424;29;20033;-92
2024/01/26 06:13:25;;;;;;;13.57;4.65;;;;;;;;;;4880815;29;20188;-95
2024/01/26 06:15:57;;;;;;;17.85;4.50;;;;;;;;;;4868253;29;20471;-89
2024/01/26 06:18:37;;;;;;;10.68;4.85;;;;;;;;;;4869492;29;20033;-93
2024/01/26 06:21:03;;;;;;;17.73;5.03;;;;;;;;;;4886551;29;20064;-87
2024/01/26 06:23:29;;;;;;;13.38;5.80;;;;;;;;;;4874284;29;20037;-87
2024/01/26 06:25:58;;;;;;;10.00;5.60;;;;;;;;;;4885400;29;20029;-88
2024/01/26 06:31:42;;;;;;;20.67;5.85;;;;;;;;;;4836223;29;20038;-89
2024/01/26 06:34:08;;;;;;;16.75;5.68;;;;;;;;;;5239685;23;20020;-88
2024/01/26 06:36:50;;;;;;;19.15;5.80;;;;;;;;;;4875562;29;20041;-87
2024/01/26 06:39:36;;;;;;;14.90;6.68;;;;;;;;;;4834533;29;20035;-89
2024/01/26 06:42:02;;;;;;;19.80;7.32;;;;;;;;;;4877523;29;20059;-89
2024/01/26 06:44:37;;;;;;;19.40;7.13;;;;;;;;;;4873989;29;20017;-88
2024/01/26 06:47:07;;;;;;;15.43;6.88;;;;;;;;;;5126579;23;20057;-96
2024/01/26 06:49:33;;;;;;;18.90;6.72;;;;;;;;;;4923426;23;20025;-88
2024/01/26 07:20:59;;;;;;;15.37;4.23;;;;;;;;;;4950129;23;20148;-94
2024/01/26 07:23:38;;;;;;;13.65;4.32;;;;;;;;;;4879203;29;20097;-88
2024/01/26 07:26:26;;;;;;;10.05;3.63;;;;;;;;;;4887999;29;20112;-96
2024/01/26 07:29:02;;;;;;;12.63;5.43;;;;;;;;;;4895806;29;20049;-95
2024/01/26 07:31:53;;;;;;;12.60;7.07;;;;;;;;;;4896781;29;20037;-94
2024/01/26 07:42:34;;;;;;;21.20;19.20;;;;;;;;;;4960813;23;20081;-89
2024/01/26 07:45:23;;;;;;;16.17;14.25;;;;;;;;;;4897428;29;20036;-96
2024/01/26 07:48:17;;;;;;;17.33;15.50;;;;;;;;;;5223314;23;20023;-93
2024/01/26 07:50:53;;;;;;;18.73;12.38;;;;;;;;;;5342484;23;20076;-90
2024/01/26 07:53:27;;;;;;;14.05;9.82;;;;;;;;;;4901704;29;20057;-96
2024/01/26 07:56:30;;;;;;;13.45;9.40;;;;;;;;;;4857239;29;20037;-96
2024/01/26 08:08:40;;;;;;;13.45;6.80;;;;;;;;;;4907789;29;20496;-91
2024/01/26 08:11:29;;;;;;;13.75;6.40;;;;;;;;;;4921782;29;20130;-96
2024/01/26 08:17:26;;;;;;;14.18;7.32;;;;;;;;;;4925275;29;20062;-95
2024/01/26 08:19:52;;;;;;;11.63;7.18;;;;;;;;;;4903182;29;20479;-88
2024/01/26 08:22:27;;;;;;;13.27;7.25;;;;;;;;;;4906356;29;20130;-96
2024/01/26 08:28:00;;;;;;;14.90;6.28;;;;;;;;;;4920838;29;20042;-95
2024/01/26 08:43:23;;;;;;;10.77;5.00;;;;;;;;;;4882012;29;20076;-88
2024/01/26 08:45:55;;;;;;;12.15;5.78;;;;;;;;;;4883326;29;20345;-95
2024/01/26 08:48:23;;;;;;;11.38;5.88;;;;;;;;;;4884794;29;20032;-88
2024/01/26 08:51:23;;;;;;;9.15;4.82;;;;;;;;;;4994316;23;20080;-95
2024/01/26 08:59:52;;;;;;;9.55;4.22;;;;;;;;;;4875717;29;20078;-91
2024/01/26 09:27:34;;;;;;;10.00;4.75;;;;;;;;;;4826801;29;20042;-88
2024/01/26 09:41:19;;;;;;;8.48;5.13;;;;;;;;;;4909039;23;20043;-92
2024/01/26 09:44:14;;;;;;;;;;;;;;;;;;;;;
2024/01/26 09:47:09;;;;;;;10.70;8.95;;;;;;;;;;4919698;29;20024;-96
2024/01/26 09:52:40;;;;;;;11.85;10.65;;;;;;;;;;4901182;29;20039;-94
2024/01/26 09:58:26;;;;;;;10.55;9.13;;;;;;;;;;4882742;29;20089;-90
2024/01/26 10:01:03;;;;;;;12.68;9.57;;;;;;;;;;4865187;29;20051;-94
2024/01/26 10:06:41;;;;;;;10.27;7.82;;;;;;;;;;4892256;29;20044;-95
2024/01/26 10:09:10;;;;;;;11.75;8.80;;;;;;;;;;4864297;29;20037;-93
2024/01/26 10:12:17;;;;;;;12.85;10.43;;;;;;;;;;4864284;29;20077;-95
2024/01/26 10:14:49;;;;;;;11.68;8.32;;;;;;;;;;4813044;29;20047;-96
2024/01/26 10:17:25;;;;;;;11.48;10.18;;;;;;;;;;4882035;29;20043;-92
2024/01/26 10:20:20;;;;;;;9.05;6.45;;;;;;;;;;4882015;29;20076;-95
2024/01/26 10:28:50;;;;;;;13.70;9.43;;;;;;;;;;4826431;29;20038;-96
2024/01/26 10:34:50;;;;;;;12.90;11.68;;;;;;;;;;4836309;29;20057;-95
2024/01/26 10:37:50;;;;;;;8.43;6.50;;;;;;;;;;4824738;29;20038;-95
2024/01/26 11:10:39;;;;;;;8.55;6.00;;;;;;;;;;4998507;23;20052;-93
2024/01/26 11:13:27;;;;;;;12.20;8.75;;;;;;;;;;4890728;29;20493;-96
2024/01/26 11:37:44;;;;;;;20.60;18.70;;;;;;;;;;5111578;23;20049;-94
2024/01/26 11:42:46;;;;;;;21.75;20.10;;;;;;;;;;5116435;23;20111;-93
2024/01/26 11:53:33;;;;;;;17.15;15.68;;;;;;;;;;5173778;23;20562;-95
2024/01/26 12:11:00;;;;;;;26.30;23.88;;;;;;;;;;4808636;29;20042;-92
2024/01/26 12:27:53;;;;;;;;;;;;;;;;;;;;;
2024/01/26 12:42:45;;;;;;;25.60;23.63;;;;;;;;;;4703778;30;20169;-93
2024/01/26 12:45:42;;;;;;;23.10;17.33;;;;;;;;;;4774244;30;20097;-94
2024/01/26 12:48:40;;;;;;;24.60;22.25;;;;;;;;;;4742716;30;20122;-95
2024/01/26 12:51:18;;;;;;;24.27;21.77;;;;;;;;;;4783114;30;20105;-89
2024/01/26 13:02:53;;;;;;;22.13;20.45;;;;;;;;;;4885324;29;20039;-90
2024/01/26 13:05:23;;;;;;;28.77;26.27;;;;;;;;;;4924700;23;20041;-92
2024/01/26 13:07:49;;;;;;;28.25;25.30;;;;;;;;;;5106273;23;20045;-87
2024/01/26 13:10:24;;;;;;;24.70;22.33;;;;;;;;;;4871691;29;20089;-93
2024/01/26 13:12:51;;;;;;;21.33;18.95;;;;;;;;;;4865157;29;20033;-92
2024/01/26 13:18:50;;;;;;;29.98;24.92;;;;;;;;;;4825350;29;20438;-95
2024/01/26 13:36:14;;;;;;;25.00;21.63;;;;;;;;;;5151649;23;20086;-94
2024/01/26 13:38:46;;;;;;;26.50;23.70;;;;;;;;;;4863121;29;20033;-90
2024/01/26 13:41:31;;;;;;;19.73;16.00;;;;;;;;;;4845689;29;20095;-93
2024/01/26 13:44:01;;;;;;;17.45;15.13;;;;;;;;;;4845607;29;20132;-93
2024/01/26 13:52:35;;;;;;;23.30;19.48;;;;;;;;;;4881669;29;20451;-94
2024/01/26 14:12:52;;;;;;;18.55;15.93;;;;;;;;;;4845403;24;20197;-96
2024/01/26 14:30:19;;;;;;;19.83;8.70;;;;;;;;;;5038288;23;20084;-94
2024/01/26 14:33:05;;;;;;;20.20;7.80;;;;;;;;;;4864408;29;20039;-95
2024/01/26 14:39:08;;;;;;;18.30;6.60;;;;;;;;;;4865170;29;20494;-94
2024/01/26 14:41:52;;;;;;;21.95;5.45;;;;;;;;;;4864467;29;20045;-94
2024/01/26 14:55:31;;;;;;;16.63;6.68;;;;;;;;;;5381666;23;20079;-87
2024/01/26 14:58:34;;;;;;;16.92;7.22;;;;;;;;;;4892979;29;20020;-93
2024/01/26 15:26:57;;;;;;;;;;;;;;;;;;;;;
2024/01/26 15:32:55;;;;;;;22.88;6.80;;;;;;;;;;4823362;29;20033;-95
2024/01/26 16:11:39;;;;;;;26.90;6.60;;;;;;;;;;4882635;29;20085;-95
2024/01/26 16:27:49;;;;;;;21.85;8.10;;;;;;;;;;4870536;29;20043;-95
2024/01/26 16:30:26;;;;;;;16.33;7.50;;;;;;;;;;4849076;29;20128;-91
2024/01/26 16:58:44;;;;;;;37.03;15.65;;;;;;;;;;4872326;29;20079;-96
2024/01/26 17:01:19;;;;;;;18.13;7.88;;;;;;;;;;4967487;23;20060;-94
2024/01/26 17:03:51;;;;;;;29.40;11.10;;;;;;;;;;4871343;29;20597;-96
2024/01/26 17:06:36;;;;;;;21.50;8.85;;;;;;;;;;4886121;29;20127;-96
2024/01/26 17:17:41;;;;;;;27.23;11.88;;;;;;;;;;4922668;23;20116;-96
2024/01/26 17:32:43;;;;;;;28.38;11.88;;;;;;;;;;5045157;23;20250;31
2024/01/26 17:35:18;;;;;;;25.85;11.00;;;;;;;;;;4893127;29;20061;-90
2024/01/26 17:38:22;;;;;;;32.00;12.98;;;;;;;;;;4847957;29;20037;-89
2024/01/26 17:41:22;;;;;;;27.55;10.98;;;;;;;;;;4894902;23;20115;-96
2024/01/26 17:44:01;;;;;;;21.10;10.57;;;;;;;;;;4890001;29;20155;-89
2024/01/26 17:46:27;;;;;;;24.27;11.82;;;;;;;;;;4883882;29;20119;-90
2024/01/26 18:53:35;;;;;;;27.23;14.00;;;;;;;;;;4884723;29;20080;-96
2024/01/26 19:28:02;;;;;;;26.75;17.40;;;;;;;;;;4904857;29;20028;-96
2024/01/26 19:30:48;;;;;;;28.00;17.83;;;;;;;;;;4861062;29;20040;-96
2024/01/26 19:33:21;;;;;;;27.38;17.90;;;;;;;;;;4868305;29;20124;-92
2024/01/26 19:35:53;;;;;;;22.88;17.23;;;;;;;;;;4869255;29;20028;-96
2024/01/26 19:38:32;;;;;;;22.70;15.90;;;;;;;;;;4868474;29;20037;-92
2024/01/26 19:40:58;;;;;;;27.25;16.85;;;;;;;;;;4864305;29;20033;-92
2024/01/26 19:59:03;;;;;;;19.33;16.37;;;;;;;;;;4809160;29;20077;-95
2024/01/26 20:17:28;;;;;;;23.15;17.42;;;;;;;;;;4894896;23;20105;-90
2024/01/26 20:19:54;;;;;;;28.75;18.42;;;;;;;;;;4866345;29;20072;-95
2024/01/26 20:22:21;;;;;;;25.85;18.30;;;;;;;;;;4869394;29;20127;-90
2024/01/26 20:25:16;;;;;;;24.33;17.65;;;;;;;;;;4867913;29;20020;-94
2024/01/26 20:27:48;;;;;;;27.38;19.13;;;;;;;;;;4855800;29;20070;-95
2024/01/26 20:36:26;;;;;;;21.85;16.50;;;;;;;;;;4884581;29;20112;-92
2024/01/26 20:42:26;;;;;;;24.13;17.05;;;;;;;;;;4904650;23;20083;-95
2024/01/26 20:44:53;;;;;;;19.13;12.35;;;;;;;;;;4871857;29;20041;-90
2024/01/26 20:47:57;;;;;;;20.13;12.65;;;;;;;;;;4882457;29;20039;-95
2024/01/26 20:50:51;;;;;;;20.60;14.95;;;;;;;;;;4887959;29;20033;-95
2024/01/26 20:56:52;;;;;;;27.00;17.88;;;;;;;;;;4999689;23;20088;-95
2024/01/26 21:08:05;;;;;;;25.92;16.30;;;;;;;;;;4884511;29;20096;-89
2024/01/26 21:55:50;;;;;;;7.05;6.35;;;;;;;;;;5369364;23;20491;-94
2024/01/26 22:13:18;;;;;;;7.30;4.95;;;;;;;;;;5109243;23;20087;-94
2024/01/26 22:24:05;;;;;;;7.45;5.18;;;;;;;;;;5491898;23;20603;-90
2024/01/26 22:26:50;;;;;;;8.93;5.72;;;;;;;;;;4880062;29;20104;-95
2024/01/26 22:44:18;;;;;;;6.45;4.03;;;;;;;;;;5075052;23;20069;-94
2024/01/26 23:01:30;;;;;;;6.50;4.25;;;;;;;;;;5250627;23;20468;-94
2024/01/26 23:16:17;;;;;;;5.38;3.58;;;;;;;;;;4966357;23;20140;-96
2024/01/26 23:18:46;;;;;;;4.93;3.22;;;;;;;;;;4867163;29;20033;-94
2024/01/26 23:21:22;;;;;;;5.47;3.35;;;;;;;;;;4883938;23;20057;-95
2024/01/26 23:33:01;;;;;;;6.53;4.35;;;;;;;;;;5026127;23;20044;-95
2024/01/26 23:41:12;;;;;;;3.90;2.10;;;;;;;;;;4926303;23;20087;-96
2024/01/26 23:43:39;;;;;;;4.18;2.47;;;;;;;;;;4868447;29;20041;-89
2024/01/26 23:49:06;;;;;;;4.30;3.10;;;;;;;;;;4951465;23;20064;-94
2024/01/26 23:51:32;;;;;;;4.07;2.08;;;;;;;;;;4866275;29;20109;-86
